sensor_id;sensor_type;location;lat;lon;timestamp;P1;durP1;ratioP1;P2;durP2;ratioP2
37485;SDS011;23341;50.296;18.960;2023-06-10T00:00:25;17.05;;;15.65;;
37485;SDS011;23341;50.296;18.960;2023-06-10T00:05:49;18.27;;;16.38;;
37485;SDS011;23341;50.296;18.960;2023-06-10T00:10:53;16.40;;;14.75;;
37485;SDS011;23341;50.296;18.960;2023-06-10T00:16:00;17.40;;;15.52;;
37485;SDS011;23341;50.296;18.960;2023-06-10T00:21:04;15.98;;;14.40;;
37485;SDS011;23341;50.296;18.960;2023-06-10T00:26:08;17.13;;;15.32;;
37485;SDS011;23341;50.296;18.960;2023-06-10T00:31:14;15.73;;;14.20;;
37485;SDS011;23341;50.296;18.960;2023-06-10T00:36:20;15.98;;;14.52;;
37485;SDS011;23341;50.296;18.960;2023-06-10T00:41:24;18.38;;;16.60;;
37485;SDS011;23341;50.296;18.960;2023-06-10T00:46:31;16.80;;;15.23;;
37485;SDS011;23341;50.296;18.960;2023-06-10T00:51:36;18.67;;;16.10;;
37485;SDS011;23341;50.296;18.960;2023-06-10T00:56:42;16.95;;;15.63;;
37485;SDS011;23341;50.296;18.960;2023-06-10T01:01:47;18.92;;;17.13;;
37485;SDS011;23341;50.296;18.960;2023-06-10T01:06:54;19.00;;;17.15;;
37485;SDS011;23341;50.296;18.960;2023-06-10T01:12:07;20.38;;;18.27;;
37485;SDS011;23341;50.296;18.960;2023-06-10T01:17:21;20.35;;;18.48;;
37485;SDS011;23341;50.296;18.960;2023-06-10T01:22:27;22.08;;;18.65;;
37485;SDS011;23341;50.296;18.960;2023-06-10T01:27:35;21.15;;;18.70;;
37485;SDS011;23341;50.296;18.960;2023-06-10T01:32:44;20.60;;;18.75;;
37485;SDS011;23341;50.296;18.960;2023-06-10T01:37:54;22.23;;;18.40;;
37485;SDS011;23341;50.296;18.960;2023-06-10T01:43:01;20.33;;;18.25;;
37485;SDS011;23341;50.296;18.960;2023-06-10T01:48:06;23.73;;;18.98;;
37485;SDS011;23341;50.296;18.960;2023-06-10T01:53:12;23.02;;;18.90;;
37485;SDS011;23341;50.296;18.960;2023-06-10T01:58:16;20.85;;;18.58;;
37485;SDS011;23341;50.296;18.960;2023-06-10T02:03:20;20.30;;;18.20;;
37485;SDS011;23341;50.296;18.960;2023-06-10T02:08:26;22.10;;;19.90;;
37485;SDS011;23341;50.296;18.960;2023-06-10T02:13:34;21.48;;;19.27;;
37485;SDS011;23341;50.296;18.960;2023-06-10T02:18:39;22.02;;;19.77;;
37485;SDS011;23341;50.296;18.960;2023-06-10T02:23:47;24.98;;;20.00;;
37485;SDS011;23341;50.296;18.960;2023-06-10T02:28:51;24.05;;;21.55;;
37485;SDS011;23341;50.296;18.960;2023-06-10T02:33:56;23.30;;;20.98;;
37485;SDS011;23341;50.296;18.960;2023-06-10T02:39:02;24.13;;;21.63;;
37485;SDS011;23341;50.296;18.960;2023-06-10T02:44:08;24.50;;;21.58;;
37485;SDS011;23341;50.296;18.960;2023-06-10T02:49:13;26.35;;;21.70;;
37485;SDS011;23341;50.296;18.960;2023-06-10T02:54:21;24.40;;;21.95;;
37485;SDS011;23341;50.296;18.960;2023-06-10T02:59:28;23.10;;;20.80;;
37485;SDS011;23341;50.296;18.960;2023-06-10T03:04:32;23.25;;;20.77;;
37485;SDS011;23341;50.296;18.960;2023-06-10T03:09:43;25.08;;;22.40;;
37485;SDS011;23341;50.296;18.960;2023-06-10T03:14:49;25.63;;;21.58;;
37485;SDS011;23341;50.296;18.960;2023-06-10T03:19:55;22.58;;;20.48;;
37485;SDS011;23341;50.296;18.960;2023-06-10T03:25:01;21.15;;;18.98;;
37485;SDS011;23341;50.296;18.960;2023-06-10T03:30:06;26.30;;;20.50;;
37485;SDS011;23341;50.296;18.960;2023-06-10T03:35:14;20.95;;;18.85;;
37485;SDS011;23341;50.296;18.960;2023-06-10T03:40:20;22.65;;;19.75;;
37485;SDS011;23341;50.296;18.960;2023-06-10T03:45:25;19.92;;;17.75;;
37485;SDS011;23341;50.296;18.960;2023-06-10T03:50:32;20.45;;;18.45;;
37485;SDS011;23341;50.296;18.960;2023-06-10T03:55:39;19.25;;;17.27;;
37485;SDS011;23341;50.296;18.960;2023-06-10T04:00:44;20.00;;;18.20;;
37485;SDS011;23341;50.296;18.960;2023-06-10T04:05:48;19.45;;;17.52;;
37485;SDS011;23341;50.296;18.960;2023-06-10T04:10:55;19.75;;;16.67;;
37485;SDS011;23341;50.296;18.960;2023-06-10T04:15:59;16.35;;;14.73;;
37485;SDS011;23341;50.296;18.960;2023-06-10T04:21:04;15.88;;;14.32;;
37485;SDS011;23341;50.296;18.960;2023-06-10T04:26:10;16.02;;;14.38;;
37485;SDS011;23341;50.296;18.960;2023-06-10T04:31:15;16.10;;;14.50;;
37485;SDS011;23341;50.296;18.960;2023-06-10T04:36:19;15.15;;;13.52;;
37485;SDS011;23341;50.296;18.960;2023-06-10T04:41:25;21.40;;;14.88;;
37485;SDS011;23341;50.296;18.960;2023-06-10T04:46:30;14.52;;;13.13;;
37485;SDS011;23341;50.296;18.960;2023-06-10T04:51:34;14.65;;;13.43;;
37485;SDS011;23341;50.296;18.960;2023-06-10T04:56:42;18.45;;;15.15;;
37485;SDS011;23341;50.296;18.960;2023-06-10T05:01:46;15.45;;;13.90;;
37485;SDS011;23341;50.296;18.960;2023-06-10T05:06:50;15.80;;;13.68;;
37485;SDS011;23341;50.296;18.960;2023-06-10T05:11:57;19.60;;;14.10;;
37485;SDS011;23341;50.296;18.960;2023-06-10T05:17:01;19.00;;;14.52;;
37485;SDS011;23341;50.296;18.960;2023-06-10T05:22:08;15.35;;;13.85;;
37485;SDS011;23341;50.296;18.960;2023-06-10T05:27:14;20.05;;;15.07;;
37485;SDS011;23341;50.296;18.960;2023-06-10T05:32:19;15.52;;;14.07;;
37485;SDS011;23341;50.296;18.960;2023-06-10T05:37:24;14.93;;;13.43;;
37485;SDS011;23341;50.296;18.960;2023-06-10T05:42:29;14.43;;;13.13;;
37485;SDS011;23341;50.296;18.960;2023-06-10T05:47:34;16.45;;;13.60;;
37485;SDS011;23341;50.296;18.960;2023-06-10T05:52:38;17.02;;;13.88;;
37485;SDS011;23341;50.296;18.960;2023-06-10T05:57:45;15.88;;;14.05;;
37485;SDS011;23341;50.296;18.960;2023-06-10T06:02:49;13.93;;;12.48;;
37485;SDS011;23341;50.296;18.960;2023-06-10T06:07:55;13.07;;;11.27;;
37485;SDS011;23341;50.296;18.960;2023-06-10T06:13:01;12.40;;;11.15;;
37485;SDS011;23341;50.296;18.960;2023-06-10T06:18:06;10.77;;;9.80;;
37485;SDS011;23341;50.296;18.960;2023-06-10T06:23:11;11.13;;;9.85;;
37485;SDS011;23341;50.296;18.960;2023-06-10T06:28:17;11.48;;;10.40;;
37485;SDS011;23341;50.296;18.960;2023-06-10T06:33:23;12.18;;;10.43;;
37485;SDS011;23341;50.296;18.960;2023-06-10T06:38:29;13.55;;;10.68;;
37485;SDS011;23341;50.296;18.960;2023-06-10T06:43:36;10.82;;;9.50;;
37485;SDS011;23341;50.296;18.960;2023-06-10T06:48:59;10.60;;;9.43;;
37485;SDS011;23341;50.296;18.960;2023-06-10T06:54:03;11.13;;;9.15;;
37485;SDS011;23341;50.296;18.960;2023-06-10T06:59:09;10.70;;;9.35;;
37485;SDS011;23341;50.296;18.960;2023-06-10T07:04:16;10.80;;;9.07;;
37485;SDS011;23341;50.296;18.960;2023-06-10T07:09:22;10.15;;;8.88;;
37485;SDS011;23341;50.296;18.960;2023-06-10T07:14:28;12.00;;;8.80;;
37485;SDS011;23341;50.296;18.960;2023-06-10T07:19:32;10.02;;;8.27;;
37485;SDS011;23341;50.296;18.960;2023-06-10T07:24:36;11.48;;;9.20;;
37485;SDS011;23341;50.296;18.960;2023-06-10T07:29:42;11.30;;;8.98;;
37485;SDS011;23341;50.296;18.960;2023-06-10T07:34:46;14.55;;;9.30;;
37485;SDS011;23341;50.296;18.960;2023-06-10T07:39:51;12.70;;;9.10;;
37485;SDS011;23341;50.296;18.960;2023-06-10T07:44:57;14.55;;;9.13;;
37485;SDS011;23341;50.296;18.960;2023-06-10T07:50:01;7.93;;;7.13;;
37485;SDS011;23341;50.296;18.960;2023-06-10T07:55:07;8.93;;;8.13;;
37485;SDS011;23341;50.296;18.960;2023-06-10T08:00:13;8.82;;;7.90;;
37485;SDS011;23341;50.296;18.960;2023-06-10T08:05:19;7.40;;;6.75;;
37485;SDS011;23341;50.296;18.960;2023-06-10T08:10:24;8.20;;;7.50;;
37485;SDS011;23341;50.296;18.960;2023-06-10T08:15:30;9.35;;;7.00;;
37485;SDS011;23341;50.296;18.960;2023-06-10T08:20:34;8.95;;;6.93;;
37485;SDS011;23341;50.296;18.960;2023-06-10T08:25:38;7.10;;;6.50;;
37485;SDS011;23341;50.296;18.960;2023-06-10T08:30:44;11.35;;;7.72;;
37485;SDS011;23341;50.296;18.960;2023-06-10T08:35:49;8.90;;;6.70;;
37485;SDS011;23341;50.296;18.960;2023-06-10T08:40:54;7.55;;;6.57;;
37485;SDS011;23341;50.296;18.960;2023-06-10T08:46:02;8.18;;;6.50;;
37485;SDS011;23341;50.296;18.960;2023-06-10T08:51:07;8.25;;;6.28;;
37485;SDS011;23341;50.296;18.960;2023-06-10T08:56:14;7.65;;;6.07;;
37485;SDS011;23341;50.296;18.960;2023-06-10T09:01:22;7.65;;;6.50;;
37485;SDS011;23341;50.296;18.960;2023-06-10T09:06:28;6.88;;;6.38;;
37485;SDS011;23341;50.296;18.960;2023-06-10T09:11:33;8.40;;;6.78;;
37485;SDS011;23341;50.296;18.960;2023-06-10T09:16:39;10.38;;;8.20;;
37485;SDS011;23341;50.296;18.960;2023-06-10T09:21:44;9.75;;;8.60;;
37485;SDS011;23341;50.296;18.960;2023-06-10T09:26:48;8.13;;;6.43;;
37485;SDS011;23341;50.296;18.960;2023-06-10T09:31:55;7.38;;;6.60;;
37485;SDS011;23341;50.296;18.960;2023-06-10T09:36:59;8.38;;;6.18;;
37485;SDS011;23341;50.296;18.960;2023-06-10T09:42:04;7.00;;;5.85;;
37485;SDS011;23341;50.296;18.960;2023-06-10T09:47:22;5.43;;;4.88;;
37485;SDS011;23341;50.296;18.960;2023-06-10T09:52:27;10.10;;;5.25;;
37485;SDS011;23341;50.296;18.960;2023-06-10T09:57:32;5.38;;;4.97;;
37485;SDS011;23341;50.296;18.960;2023-06-10T10:02:45;5.20;;;4.70;;
37485;SDS011;23341;50.296;18.960;2023-06-10T10:07:51;4.63;;;4.00;;
37485;SDS011;23341;50.296;18.960;2023-06-10T10:12:56;4.47;;;3.55;;
37485;SDS011;23341;50.296;18.960;2023-06-10T10:18:05;3.90;;;3.55;;
37485;SDS011;23341;50.296;18.960;2023-06-10T10:23:13;5.10;;;3.28;;
37485;SDS011;23341;50.296;18.960;2023-06-10T10:28:22;4.20;;;2.90;;
37485;SDS011;23341;50.296;18.960;2023-06-10T10:33:33;4.22;;;3.80;;
37485;SDS011;23341;50.296;18.960;2023-06-10T10:38:46;3.92;;;3.63;;
37485;SDS011;23341;50.296;18.960;2023-06-10T10:43:54;3.77;;;3.40;;
37485;SDS011;23341;50.296;18.960;2023-06-10T10:49:01;4.10;;;3.72;;
37485;SDS011;23341;50.296;18.960;2023-06-10T10:54:09;5.85;;;4.32;;
37485;SDS011;23341;50.296;18.960;2023-06-10T10:59:15;7.17;;;3.40;;
37485;SDS011;23341;50.296;18.960;2023-06-10T11:04:24;3.90;;;2.90;;
37485;SDS011;23341;50.296;18.960;2023-06-10T11:09:30;6.80;;;3.47;;
37485;SDS011;23341;50.296;18.960;2023-06-10T11:14:34;4.68;;;4.28;;
37485;SDS011;23341;50.296;18.960;2023-06-10T11:19:43;3.13;;;2.65;;
37485;SDS011;23341;50.296;18.960;2023-06-10T11:24:49;3.72;;;3.35;;
37485;SDS011;23341;50.296;18.960;2023-06-10T11:29:55;3.80;;;3.40;;
37485;SDS011;23341;50.296;18.960;2023-06-10T11:35:06;3.80;;;3.50;;
37485;SDS011;23341;50.296;18.960;2023-06-10T11:40:13;2.90;;;2.70;;
37485;SDS011;23341;50.296;18.960;2023-06-10T11:45:18;4.32;;;3.00;;
37485;SDS011;23341;50.296;18.960;2023-06-10T11:50:29;3.45;;;3.17;;
37485;SDS011;23341;50.296;18.960;2023-06-10T11:55:41;7.03;;;3.05;;
37485;SDS011;23341;50.296;18.960;2023-06-10T12:00:47;5.35;;;3.10;;
37485;SDS011;23341;50.296;18.960;2023-06-10T12:05:56;6.22;;;3.95;;
37485;SDS011;23341;50.296;18.960;2023-06-10T12:11:01;5.25;;;3.45;;
37485;SDS011;23341;50.296;18.960;2023-06-10T12:16:08;4.47;;;3.40;;
37485;SDS011;23341;50.296;18.960;2023-06-10T12:21:18;4.28;;;3.53;;
37485;SDS011;23341;50.296;18.960;2023-06-10T12:26:33;5.60;;;4.40;;
37485;SDS011;23341;50.296;18.960;2023-06-10T12:31:51;5.03;;;4.03;;
37485;SDS011;23341;50.296;18.960;2023-06-10T12:37:01;4.22;;;3.60;;
37485;SDS011;23341;50.296;18.960;2023-06-10T12:42:08;3.72;;;3.42;;
37485;SDS011;23341;50.296;18.960;2023-06-10T12:47:13;3.70;;;3.08;;
37485;SDS011;23341;50.296;18.960;2023-06-10T12:52:21;6.15;;;3.92;;
37485;SDS011;23341;50.296;18.960;2023-06-10T12:57:25;4.07;;;3.55;;
37485;SDS011;23341;50.296;18.960;2023-06-10T13:02:30;3.95;;;3.63;;
37485;SDS011;23341;50.296;18.960;2023-06-10T13:07:36;5.47;;;4.05;;
37485;SDS011;23341;50.296;18.960;2023-06-10T13:12:40;3.90;;;3.60;;
37485;SDS011;23341;50.296;18.960;2023-06-10T13:17:51;3.67;;;3.38;;
37485;SDS011;23341;50.296;18.960;2023-06-10T13:22:57;4.70;;;4.10;;
37485;SDS011;23341;50.296;18.960;2023-06-10T13:28:02;4.40;;;3.15;;
37485;SDS011;23341;50.296;18.960;2023-06-10T13:33:06;4.22;;;3.83;;
37485;SDS011;23341;50.296;18.960;2023-06-10T13:38:12;4.40;;;3.92;;
37485;SDS011;23341;50.296;18.960;2023-06-10T13:43:17;6.82;;;3.70;;
37485;SDS011;23341;50.296;18.960;2023-06-10T13:48:21;4.28;;;3.97;;
37485;SDS011;23341;50.296;18.960;2023-06-10T13:53:27;5.38;;;4.30;;
37485;SDS011;23341;50.296;18.960;2023-06-10T13:58:31;4.13;;;3.78;;
37485;SDS011;23341;50.296;18.960;2023-06-10T14:03:41;4.53;;;4.13;;
37485;SDS011;23341;50.296;18.960;2023-06-10T14:08:47;4.10;;;3.63;;
37485;SDS011;23341;50.296;18.960;2023-06-10T14:13:51;3.75;;;3.45;;
37485;SDS011;23341;50.296;18.960;2023-06-10T14:18:55;4.50;;;4.15;;
37485;SDS011;23341;50.296;18.960;2023-06-10T14:24:01;5.15;;;4.75;;
37485;SDS011;23341;50.296;18.960;2023-06-10T14:29:06;3.22;;;2.92;;
37485;SDS011;23341;50.296;18.960;2023-06-10T14:34:11;3.47;;;2.80;;
37485;SDS011;23341;50.296;18.960;2023-06-10T14:39:17;5.35;;;2.63;;
37485;SDS011;23341;50.296;18.960;2023-06-10T14:44:22;4.10;;;3.15;;
37485;SDS011;23341;50.296;18.960;2023-06-10T14:49:26;4.72;;;3.35;;
37485;SDS011;23341;50.296;18.960;2023-06-10T14:54:32;4.90;;;3.60;;
37485;SDS011;23341;50.296;18.960;2023-06-10T14:59:36;5.25;;;4.00;;
37485;SDS011;23341;50.296;18.960;2023-06-10T15:04:40;5.70;;;4.45;;
37485;SDS011;23341;50.296;18.960;2023-06-10T15:09:46;6.13;;;5.00;;
37485;SDS011;23341;50.296;18.960;2023-06-10T15:14:51;38.80;;;9.35;;
37485;SDS011;23341;50.296;18.960;2023-06-10T15:19:55;6.40;;;5.80;;
37485;SDS011;23341;50.296;18.960;2023-06-10T15:25:01;7.25;;;6.65;;
37485;SDS011;23341;50.296;18.960;2023-06-10T15:30:26;6.75;;;6.15;;
37485;SDS011;23341;50.296;18.960;2023-06-10T15:35:30;6.72;;;6.18;;
37485;SDS011;23341;50.296;18.960;2023-06-10T15:40:36;6.88;;;6.30;;
37485;SDS011;23341;50.296;18.960;2023-06-10T15:45:40;7.25;;;6.75;;
37485;SDS011;23341;50.296;18.960;2023-06-10T15:50:45;6.68;;;6.07;;
37485;SDS011;23341;50.296;18.960;2023-06-10T15:55:51;7.20;;;6.07;;
37485;SDS011;23341;50.296;18.960;2023-06-10T16:00:55;6.95;;;6.25;;
37485;SDS011;23341;50.296;18.960;2023-06-10T16:06:00;5.72;;;5.28;;
37485;SDS011;23341;50.296;18.960;2023-06-10T16:11:06;9.00;;;6.07;;
37485;SDS011;23341;50.296;18.960;2023-06-10T16:16:11;8.55;;;5.93;;
37485;SDS011;23341;50.296;18.960;2023-06-10T16:21:15;6.05;;;5.45;;
37485;SDS011;23341;50.296;18.960;2023-06-10T16:26:21;6.05;;;5.53;;
37485;SDS011;23341;50.296;18.960;2023-06-10T16:31:25;8.85;;;5.07;;
37485;SDS011;23341;50.296;18.960;2023-06-10T16:36:30;8.48;;;5.97;;
37485;SDS011;23341;50.296;18.960;2023-06-10T16:41:35;11.40;;;6.75;;
37485;SDS011;23341;50.296;18.960;2023-06-10T16:46:40;13.38;;;7.47;;
37485;SDS011;23341;50.296;18.960;2023-06-10T16:51:44;8.27;;;6.90;;
37485;SDS011;23341;50.296;18.960;2023-06-10T16:56:50;6.45;;;5.68;;
37485;SDS011;23341;50.296;18.960;2023-06-10T17:01:55;7.50;;;5.22;;
37485;SDS011;23341;50.296;18.960;2023-06-10T17:07:03;10.32;;;7.22;;
37485;SDS011;23341;50.296;18.960;2023-06-10T17:12:10;10.02;;;7.13;;
37485;SDS011;23341;50.296;18.960;2023-06-10T17:17:14;7.35;;;6.03;;
37485;SDS011;23341;50.296;18.960;2023-06-10T17:22:19;6.00;;;5.25;;
37485;SDS011;23341;50.296;18.960;2023-06-10T17:27:24;10.85;;;7.72;;
37485;SDS011;23341;50.296;18.960;2023-06-10T17:32:29;7.45;;;5.80;;
37485;SDS011;23341;50.296;18.960;2023-06-10T17:37:36;7.20;;;5.03;;
37485;SDS011;23341;50.296;18.960;2023-06-10T17:42:44;4.88;;;4.25;;
37485;SDS011;23341;50.296;18.960;2023-06-10T17:47:49;6.72;;;3.60;;
37485;SDS011;23341;50.296;18.960;2023-06-10T17:52:53;5.20;;;3.65;;
37485;SDS011;23341;50.296;18.960;2023-06-10T17:57:59;7.03;;;4.05;;
37485;SDS011;23341;50.296;18.960;2023-06-10T18:03:04;7.30;;;3.88;;
37485;SDS011;23341;50.296;18.960;2023-06-10T18:08:08;7.47;;;4.45;;
37485;SDS011;23341;50.296;18.960;2023-06-10T18:13:14;4.88;;;3.75;;
37485;SDS011;23341;50.296;18.960;2023-06-10T18:18:19;4.20;;;3.80;;
37485;SDS011;23341;50.296;18.960;2023-06-10T18:23:24;5.47;;;3.67;;
37485;SDS011;23341;50.296;18.960;2023-06-10T18:28:29;7.68;;;3.40;;
37485;SDS011;23341;50.296;18.960;2023-06-10T18:33:34;4.18;;;3.50;;
37485;SDS011;23341;50.296;18.960;2023-06-10T18:38:38;6.95;;;3.28;;
37485;SDS011;23341;50.296;18.960;2023-06-10T18:43:44;3.78;;;3.40;;
37485;SDS011;23341;50.296;18.960;2023-06-10T18:48:49;4.22;;;3.45;;
37485;SDS011;23341;50.296;18.960;2023-06-10T18:53:53;3.85;;;3.25;;
37485;SDS011;23341;50.296;18.960;2023-06-10T18:59:00;6.60;;;3.78;;
37485;SDS011;23341;50.296;18.960;2023-06-10T19:04:04;4.38;;;3.70;;
37485;SDS011;23341;50.296;18.960;2023-06-10T19:09:09;7.53;;;3.10;;
37485;SDS011;23341;50.296;18.960;2023-06-10T19:14:16;4.97;;;4.00;;
37485;SDS011;23341;50.296;18.960;2023-06-10T19:19:20;5.85;;;3.22;;
37485;SDS011;23341;50.296;18.960;2023-06-10T19:24:25;3.95;;;3.33;;
37485;SDS011;23341;50.296;18.960;2023-06-10T19:29:31;4.30;;;3.38;;
37485;SDS011;23341;50.296;18.960;2023-06-10T19:34:36;4.60;;;4.10;;
37485;SDS011;23341;50.296;18.960;2023-06-10T19:39:40;6.45;;;4.53;;
37485;SDS011;23341;50.296;18.960;2023-06-10T19:44:47;9.98;;;5.50;;
37485;SDS011;23341;50.296;18.960;2023-06-10T19:49:51;6.20;;;5.55;;
37485;SDS011;23341;50.296;18.960;2023-06-10T19:54:56;6.15;;;5.55;;
37485;SDS011;23341;50.296;18.960;2023-06-10T20:00:03;8.55;;;5.38;;
37485;SDS011;23341;50.296;18.960;2023-06-10T20:05:14;5.93;;;5.30;;
37485;SDS011;23341;50.296;18.960;2023-06-10T20:10:18;5.93;;;5.40;;
37485;SDS011;23341;50.296;18.960;2023-06-10T20:15:24;5.57;;;4.80;;
37485;SDS011;23341;50.296;18.960;2023-06-10T20:20:28;7.95;;;4.65;;
37485;SDS011;23341;50.296;18.960;2023-06-10T20:25:32;5.32;;;4.82;;
37485;SDS011;23341;50.296;18.960;2023-06-10T20:30:40;6.97;;;5.75;;
37485;SDS011;23341;50.296;18.960;2023-06-10T20:35:44;9.95;;;6.28;;
37485;SDS011;23341;50.296;18.960;2023-06-10T20:40:49;5.32;;;4.88;;
37485;SDS011;23341;50.296;18.960;2023-06-10T20:45:55;7.50;;;5.05;;
37485;SDS011;23341;50.296;18.960;2023-06-10T20:51:00;5.55;;;5.05;;
37485;SDS011;23341;50.296;18.960;2023-06-10T20:56:04;6.05;;;5.53;;
37485;SDS011;23341;50.296;18.960;2023-06-10T21:01:10;10.38;;;7.13;;
37485;SDS011;23341;50.296;18.960;2023-06-10T21:06:15;7.38;;;5.55;;
37485;SDS011;23341;50.296;18.960;2023-06-10T21:11:20;5.15;;;4.75;;
37485;SDS011;23341;50.296;18.960;2023-06-10T21:16:26;7.28;;;5.82;;
37485;SDS011;23341;50.296;18.960;2023-06-10T21:21:33;7.70;;;5.82;;
37485;SDS011;23341;50.296;18.960;2023-06-10T21:26:38;6.28;;;5.70;;
37485;SDS011;23341;50.296;18.960;2023-06-10T21:31:45;8.32;;;5.50;;
37485;SDS011;23341;50.296;18.960;2023-06-10T21:36:49;6.50;;;5.90;;
37485;SDS011;23341;50.296;18.960;2023-06-10T21:41:54;7.10;;;6.15;;
37485;SDS011;23341;50.296;18.960;2023-06-10T21:46:59;6.55;;;6.05;;
37485;SDS011;23341;50.296;18.960;2023-06-10T21:52:04;8.10;;;6.55;;
37485;SDS011;23341;50.296;18.960;2023-06-10T21:57:09;7.60;;;7.00;;
37485;SDS011;23341;50.296;18.960;2023-06-10T22:02:15;8.98;;;6.88;;
37485;SDS011;23341;50.296;18.960;2023-06-10T22:07:20;8.48;;;7.47;;
37485;SDS011;23341;50.296;18.960;2023-06-10T22:12:27;7.55;;;6.85;;
37485;SDS011;23341;50.296;18.960;2023-06-10T22:17:33;7.72;;;6.95;;
37485;SDS011;23341;50.296;18.960;2023-06-10T22:22:37;8.50;;;7.70;;
37485;SDS011;23341;50.296;18.960;2023-06-10T22:27:42;8.55;;;7.57;;
37485;SDS011;23341;50.296;18.960;2023-06-10T22:32:48;9.45;;;7.80;;
37485;SDS011;23341;50.296;18.960;2023-06-10T22:37:53;7.45;;;6.72;;
37485;SDS011;23341;50.296;18.960;2023-06-10T22:42:57;8.00;;;7.40;;
37485;SDS011;23341;50.296;18.960;2023-06-10T22:48:04;9.38;;;8.48;;
37485;SDS011;23341;50.296;18.960;2023-06-10T22:53:09;9.68;;;8.27;;
37485;SDS011;23341;50.296;18.960;2023-06-10T22:58:13;8.38;;;7.68;;
37485;SDS011;23341;50.296;18.960;2023-06-10T23:03:23;9.20;;;8.30;;
37485;SDS011;23341;50.296;18.960;2023-06-10T23:08:28;7.70;;;7.05;;
37485;SDS011;23341;50.296;18.960;2023-06-10T23:13:33;10.45;;;7.65;;
37485;SDS011;23341;50.296;18.960;2023-06-10T23:18:38;8.77;;;7.47;;
37485;SDS011;23341;50.296;18.960;2023-06-10T23:23:44;8.60;;;7.63;;
37485;SDS011;23341;50.296;18.960;2023-06-10T23:28:48;9.45;;;7.30;;
37485;SDS011;23341;50.296;18.960;2023-06-10T23:33:54;11.35;;;7.57;;
37485;SDS011;23341;50.296;18.960;2023-06-10T23:38:59;7.78;;;7.18;;
37485;SDS011;23341;50.296;18.960;2023-06-10T23:44:03;8.45;;;7.78;;
37485;SDS011;23341;50.296;18.960;2023-06-10T23:49:09;8.65;;;7.25;;
37485;SDS011;23341;50.296;18.960;2023-06-10T23:54:14;8.43;;;7.72;;
37485;SDS011;23341;50.296;18.960;2023-06-10T23:59:19;9.05;;;7.15;;
